sensor_id;sensor_type;location;lat;lon;timestamp;P1;durP1;ratioP1;P2;durP2;ratioP2
71572;SDS011;59408;51.032;9.410;2022-10-12T00:00:30;8.15;;;2.10;;
71572;SDS011;59408;51.032;9.410;2022-10-12T00:02:56;5.93;;;2.27;;
71572;SDS011;59408;51.032;9.410;2022-10-12T00:05:23;7.77;;;2.30;;
71572;SDS011;59408;51.032;9.410;2022-10-12T00:07:50;8.00;;;2.13;;
71572;SDS011;59408;51.032;9.410;2022-10-12T00:10:16;9.90;;;2.92;;
71572;SDS011;59408;51.032;9.410;2022-10-12T00:12:43;8.88;;;2.40;;
71572;SDS011;59408;51.032;9.410;2022-10-12T00:15:11;6.75;;;2.28;;
71572;SDS011;59408;51.032;9.410;2022-10-12T00:17:38;6.73;;;2.10;;
71572;SDS011;59408;51.032;9.410;2022-10-12T00:20:05;7.00;;;1.75;;
71572;SDS011;59408;51.032;9.410;2022-10-12T00:22:33;6.57;;;2.30;;
71572;SDS011;59408;51.032;9.410;2022-10-12T00:24:59;5.82;;;2.08;;
71572;SDS011;59408;51.032;9.410;2022-10-12T00:27:26;6.47;;;2.28;;
71572;SDS011;59408;51.032;9.410;2022-10-12T00:29:53;7.97;;;2.60;;
71572;SDS011;59408;51.032;9.410;2022-10-12T00:32:21;6.35;;;2.47;;
71572;SDS011;59408;51.032;9.410;2022-10-12T00:34:47;7.20;;;3.05;;
71572;SDS011;59408;51.032;9.410;2022-10-12T00:37:14;10.70;;;2.40;;
71572;SDS011;59408;51.032;9.410;2022-10-12T00:39:40;10.73;;;2.92;;
71572;SDS011;59408;51.032;9.410;2022-10-12T00:42:08;7.27;;;2.60;;
71572;SDS011;59408;51.032;9.410;2022-10-12T00:44:37;7.37;;;2.33;;
71572;SDS011;59408;51.032;9.410;2022-10-12T00:47:12;8.48;;;2.38;;
71572;SDS011;59408;51.032;9.410;2022-10-12T00:49:50;7.38;;;2.30;;
71572;SDS011;59408;51.032;9.410;2022-10-12T00:52:21;6.72;;;2.33;;
71572;SDS011;59408;51.032;9.410;2022-10-12T00:54:50;10.18;;;2.33;;
71572;SDS011;59408;51.032;9.410;2022-10-12T00:57:19;6.70;;;2.10;;
71572;SDS011;59408;51.032;9.410;2022-10-12T00:59:48;7.05;;;2.45;;
71572;SDS011;59408;51.032;9.410;2022-10-12T01:02:17;7.93;;;2.47;;
71572;SDS011;59408;51.032;9.410;2022-10-12T01:04:44;6.22;;;2.20;;
71572;SDS011;59408;51.032;9.410;2022-10-12T01:07:12;8.38;;;2.65;;
71572;SDS011;59408;51.032;9.410;2022-10-12T01:09:39;8.20;;;2.90;;
71572;SDS011;59408;51.032;9.410;2022-10-12T01:12:07;7.20;;;2.25;;
71572;SDS011;59408;51.032;9.410;2022-10-12T01:14:34;9.43;;;3.13;;
71572;SDS011;59408;51.032;9.410;2022-10-12T01:17:02;7.22;;;2.38;;
71572;SDS011;59408;51.032;9.410;2022-10-12T01:19:49;7.20;;;2.55;;
71572;SDS011;59408;51.032;9.410;2022-10-12T01:22:39;10.83;;;2.83;;
71572;SDS011;59408;51.032;9.410;2022-10-12T01:25:16;7.25;;;2.50;;
71572;SDS011;59408;51.032;9.410;2022-10-12T01:28:00;8.98;;;2.45;;
71572;SDS011;59408;51.032;9.410;2022-10-12T01:30:40;7.38;;;2.25;;
71572;SDS011;59408;51.032;9.410;2022-10-12T01:33:12;9.80;;;2.50;;
71572;SDS011;59408;51.032;9.410;2022-10-12T01:35:47;7.00;;;2.37;;
71572;SDS011;59408;51.032;9.410;2022-10-12T01:38:24;6.00;;;2.33;;
71572;SDS011;59408;51.032;9.410;2022-10-12T01:41:00;9.85;;;2.50;;
71572;SDS011;59408;51.032;9.410;2022-10-12T01:43:32;6.97;;;2.20;;
71572;SDS011;59408;51.032;9.410;2022-10-12T01:46:05;6.65;;;2.13;;
71572;SDS011;59408;51.032;9.410;2022-10-12T01:48:33;6.90;;;2.07;;
71572;SDS011;59408;51.032;9.410;2022-10-12T01:51:00;6.70;;;2.20;;
71572;SDS011;59408;51.032;9.410;2022-10-12T01:53:28;6.43;;;1.83;;
71572;SDS011;59408;51.032;9.410;2022-10-12T01:56:05;6.47;;;2.30;;
71572;SDS011;59408;51.032;9.410;2022-10-12T01:58:41;6.90;;;2.10;;
71572;SDS011;59408;51.032;9.410;2022-10-12T02:01:23;6.53;;;2.07;;
71572;SDS011;59408;51.032;9.410;2022-10-12T02:03:59;7.97;;;2.22;;
71572;SDS011;59408;51.032;9.410;2022-10-12T02:06:33;5.93;;;2.00;;
71572;SDS011;59408;51.032;9.410;2022-10-12T02:09:05;6.88;;;1.88;;
71572;SDS011;59408;51.032;9.410;2022-10-12T02:11:37;5.18;;;2.17;;
71572;SDS011;59408;51.032;9.410;2022-10-12T02:14:08;9.47;;;2.10;;
71572;SDS011;59408;51.032;9.410;2022-10-12T02:16:41;7.00;;;2.20;;
71572;SDS011;59408;51.032;9.410;2022-10-12T02:19:12;6.32;;;1.80;;
71572;SDS011;59408;51.032;9.410;2022-10-12T02:21:43;6.97;;;2.10;;
71572;SDS011;59408;51.032;9.410;2022-10-12T02:24:12;6.70;;;2.20;;
71572;SDS011;59408;51.032;9.410;2022-10-12T02:26:40;7.37;;;2.50;;
71572;SDS011;59408;51.032;9.410;2022-10-12T02:29:12;7.53;;;2.40;;
71572;SDS011;59408;51.032;9.410;2022-10-12T02:31:44;7.22;;;2.22;;
71572;SDS011;59408;51.032;9.410;2022-10-12T02:34:18;11.23;;;2.40;;
71572;SDS011;59408;51.032;9.410;2022-10-12T02:36:49;12.82;;;2.95;;
71572;SDS011;59408;51.032;9.410;2022-10-12T02:39:18;6.13;;;1.93;;
71572;SDS011;59408;51.032;9.410;2022-10-12T02:41:50;8.43;;;2.20;;
71572;SDS011;59408;51.032;9.410;2022-10-12T02:44:21;6.45;;;2.22;;
71572;SDS011;59408;51.032;9.410;2022-10-12T02:46:52;11.27;;;2.40;;
71572;SDS011;59408;51.032;9.410;2022-10-12T02:49:21;7.57;;;2.00;;
71572;SDS011;59408;51.032;9.410;2022-10-12T02:51:50;7.13;;;2.00;;
71572;SDS011;59408;51.032;9.410;2022-10-12T02:54:18;8.25;;;2.35;;
71572;SDS011;59408;51.032;9.410;2022-10-12T02:56:46;10.00;;;2.38;;
71572;SDS011;59408;51.032;9.410;2022-10-12T02:59:12;7.68;;;2.40;;
71572;SDS011;59408;51.032;9.410;2022-10-12T03:01:40;8.73;;;2.50;;
71572;SDS011;59408;51.032;9.410;2022-10-12T03:04:08;6.87;;;2.40;;
71572;SDS011;59408;51.032;9.410;2022-10-12T03:06:35;7.80;;;2.60;;
71572;SDS011;59408;51.032;9.410;2022-10-12T03:09:02;7.88;;;2.40;;
71572;SDS011;59408;51.032;9.410;2022-10-12T03:11:28;8.30;;;2.33;;
71572;SDS011;59408;51.032;9.410;2022-10-12T03:13:55;7.97;;;2.60;;
71572;SDS011;59408;51.032;9.410;2022-10-12T03:16:22;8.67;;;2.47;;
71572;SDS011;59408;51.032;9.410;2022-10-12T03:18:49;6.80;;;1.97;;
71572;SDS011;59408;51.032;9.410;2022-10-12T03:21:17;8.00;;;2.25;;
71572;SDS011;59408;51.032;9.410;2022-10-12T03:23:44;7.07;;;2.33;;
71572;SDS011;59408;51.032;9.410;2022-10-12T03:26:10;7.10;;;2.03;;
71572;SDS011;59408;51.032;9.410;2022-10-12T03:28:37;6.68;;;2.22;;
71572;SDS011;59408;51.032;9.410;2022-10-12T03:31:04;7.20;;;2.17;;
71572;SDS011;59408;51.032;9.410;2022-10-12T03:33:30;6.03;;;2.20;;
71572;SDS011;59408;51.032;9.410;2022-10-12T03:35:57;6.80;;;2.30;;
71572;SDS011;59408;51.032;9.410;2022-10-12T03:38:25;6.50;;;2.28;;
71572;SDS011;59408;51.032;9.410;2022-10-12T03:40:51;6.53;;;2.25;;
71572;SDS011;59408;51.032;9.410;2022-10-12T03:43:18;6.77;;;2.10;;
71572;SDS011;59408;51.032;9.410;2022-10-12T03:45:45;8.27;;;2.28;;
71572;SDS011;59408;51.032;9.410;2022-10-12T03:48:11;8.05;;;2.22;;
71572;SDS011;59408;51.032;9.410;2022-10-12T03:50:38;8.23;;;2.15;;
71572;SDS011;59408;51.032;9.410;2022-10-12T03:53:05;6.10;;;2.25;;
71572;SDS011;59408;51.032;9.410;2022-10-12T03:55:33;5.70;;;1.90;;
71572;SDS011;59408;51.032;9.410;2022-10-12T03:58:00;6.37;;;2.10;;
71572;SDS011;59408;51.032;9.410;2022-10-12T04:00:26;6.60;;;2.05;;
71572;SDS011;59408;51.032;9.410;2022-10-12T04:02:53;6.38;;;1.80;;
71572;SDS011;59408;51.032;9.410;2022-10-12T04:05:20;5.07;;;1.70;;
71572;SDS011;59408;51.032;9.410;2022-10-12T04:07:47;4.68;;;1.67;;
71572;SDS011;59408;51.032;9.410;2022-10-12T04:10:13;5.87;;;1.73;;
71572;SDS011;59408;51.032;9.410;2022-10-12T04:12:41;6.28;;;1.88;;
71572;SDS011;59408;51.032;9.410;2022-10-12T04:15:08;5.57;;;2.08;;
71572;SDS011;59408;51.032;9.410;2022-10-12T04:17:35;7.60;;;1.88;;
71572;SDS011;59408;51.032;9.410;2022-10-12T04:20:03;6.10;;;1.55;;
71572;SDS011;59408;51.032;9.410;2022-10-12T04:22:30;5.43;;;1.60;;
71572;SDS011;59408;51.032;9.410;2022-10-12T04:24:57;5.55;;;2.08;;
71572;SDS011;59408;51.032;9.410;2022-10-12T04:27:24;8.38;;;2.38;;
71572;SDS011;59408;51.032;9.410;2022-10-12T04:29:51;9.45;;;4.10;;
71572;SDS011;59408;51.032;9.410;2022-10-12T04:32:18;10.25;;;4.93;;
71572;SDS011;59408;51.032;9.410;2022-10-12T04:34:44;12.13;;;3.97;;
71572;SDS011;59408;51.032;9.410;2022-10-12T04:37:11;11.10;;;3.57;;
71572;SDS011;59408;51.032;9.410;2022-10-12T04:39:37;8.32;;;3.40;;
71572;SDS011;59408;51.032;9.410;2022-10-12T04:42:04;10.90;;;3.45;;
71572;SDS011;59408;51.032;9.410;2022-10-12T04:44:31;11.88;;;4.85;;
71572;SDS011;59408;51.032;9.410;2022-10-12T04:46:59;13.45;;;4.35;;
71572;SDS011;59408;51.032;9.410;2022-10-12T04:49:26;12.87;;;4.30;;
71572;SDS011;59408;51.032;9.410;2022-10-12T04:51:52;12.95;;;4.22;;
71572;SDS011;59408;51.032;9.410;2022-10-12T04:54:19;11.50;;;4.20;;
71572;SDS011;59408;51.032;9.410;2022-10-12T04:56:45;9.60;;;3.72;;
71572;SDS011;59408;51.032;9.410;2022-10-12T04:59:13;10.98;;;3.70;;
71572;SDS011;59408;51.032;9.410;2022-10-12T05:01:40;10.60;;;3.43;;
71572;SDS011;59408;51.032;9.410;2022-10-12T05:04:08;10.55;;;4.18;;
71572;SDS011;59408;51.032;9.410;2022-10-12T05:06:34;9.80;;;3.97;;
71572;SDS011;59408;51.032;9.410;2022-10-12T05:09:01;10.23;;;3.90;;
71572;SDS011;59408;51.032;9.410;2022-10-12T05:11:28;9.50;;;3.67;;
71572;SDS011;59408;51.032;9.410;2022-10-12T05:13:55;10.03;;;3.90;;
71572;SDS011;59408;51.032;9.410;2022-10-12T05:16:21;10.15;;;3.45;;
71572;SDS011;59408;51.032;9.410;2022-10-12T05:18:48;11.70;;;4.00;;
71572;SDS011;59408;51.032;9.410;2022-10-12T05:21:16;9.25;;;3.65;;
71572;SDS011;59408;51.032;9.410;2022-10-12T05:23:42;9.77;;;3.80;;
71572;SDS011;59408;51.032;9.410;2022-10-12T05:26:10;11.63;;;3.57;;
71572;SDS011;59408;51.032;9.410;2022-10-12T05:28:36;8.52;;;3.70;;
71572;SDS011;59408;51.032;9.410;2022-10-12T05:31:06;7.50;;;3.40;;
71572;SDS011;59408;51.032;9.410;2022-10-12T05:33:33;11.55;;;3.60;;
71572;SDS011;59408;51.032;9.410;2022-10-12T05:35:59;13.07;;;3.80;;
71572;SDS011;59408;51.032;9.410;2022-10-12T05:38:27;10.17;;;3.67;;
71572;SDS011;59408;51.032;9.410;2022-10-12T05:40:54;9.18;;;3.67;;
71572;SDS011;59408;51.032;9.410;2022-10-12T05:43:26;7.93;;;3.35;;
71572;SDS011;59408;51.032;9.410;2022-10-12T05:45:52;7.82;;;3.53;;
71572;SDS011;59408;51.032;9.410;2022-10-12T05:48:19;10.52;;;3.72;;
71572;SDS011;59408;51.032;9.410;2022-10-12T05:50:46;10.50;;;3.87;;
71572;SDS011;59408;51.032;9.410;2022-10-12T05:53:12;7.20;;;3.25;;
71572;SDS011;59408;51.032;9.410;2022-10-12T05:55:42;8.20;;;3.70;;
71572;SDS011;59408;51.032;9.410;2022-10-12T05:58:17;9.05;;;3.90;;
71572;SDS011;59408;51.032;9.410;2022-10-12T06:00:43;11.40;;;4.57;;
71572;SDS011;59408;51.032;9.410;2022-10-12T06:03:10;11.23;;;4.17;;
71572;SDS011;59408;51.032;9.410;2022-10-12T06:05:36;10.50;;;3.85;;
71572;SDS011;59408;51.032;9.410;2022-10-12T06:08:03;12.52;;;4.20;;
71572;SDS011;59408;51.032;9.410;2022-10-12T06:10:30;8.30;;;3.70;;
71572;SDS011;59408;51.032;9.410;2022-10-12T06:12:58;8.93;;;4.28;;
71572;SDS011;59408;51.032;9.410;2022-10-12T06:15:24;7.07;;;3.43;;
71572;SDS011;59408;51.032;9.410;2022-10-12T06:17:51;8.73;;;4.18;;
71572;SDS011;59408;51.032;9.410;2022-10-12T06:20:17;8.63;;;4.05;;
71572;SDS011;59408;51.032;9.410;2022-10-12T06:22:44;8.35;;;3.88;;
71572;SDS011;59408;51.032;9.410;2022-10-12T06:25:10;10.00;;;3.90;;
71572;SDS011;59408;51.032;9.410;2022-10-12T06:27:37;9.10;;;3.97;;
71572;SDS011;59408;51.032;9.410;2022-10-12T06:30:06;12.27;;;4.40;;
71572;SDS011;59408;51.032;9.410;2022-10-12T06:32:33;10.98;;;5.22;;
71572;SDS011;59408;51.032;9.410;2022-10-12T06:34:59;12.05;;;5.53;;
71572;SDS011;59408;51.032;9.410;2022-10-12T06:37:26;14.20;;;6.45;;
71572;SDS011;59408;51.032;9.410;2022-10-12T06:40:12;10.00;;;3.80;;
71572;SDS011;59408;51.032;9.410;2022-10-12T06:42:39;9.25;;;4.45;;
71572;SDS011;59408;51.032;9.410;2022-10-12T06:45:08;8.55;;;3.75;;
71572;SDS011;59408;51.032;9.410;2022-10-12T06:47:35;9.45;;;4.28;;
71572;SDS011;59408;51.032;9.410;2022-10-12T06:50:02;9.63;;;4.38;;
71572;SDS011;59408;51.032;9.410;2022-10-12T06:52:29;13.37;;;5.60;;
71572;SDS011;59408;51.032;9.410;2022-10-12T06:54:55;11.38;;;5.00;;
71572;SDS011;59408;51.032;9.410;2022-10-12T06:57:22;9.43;;;4.60;;
71572;SDS011;59408;51.032;9.410;2022-10-12T06:59:48;10.50;;;4.22;;
71572;SDS011;59408;51.032;9.410;2022-10-12T07:02:16;10.23;;;4.40;;
71572;SDS011;59408;51.032;9.410;2022-10-12T07:04:43;10.03;;;4.60;;
71572;SDS011;59408;51.032;9.410;2022-10-12T07:07:09;10.52;;;4.90;;
71572;SDS011;59408;51.032;9.410;2022-10-12T07:09:36;10.90;;;4.80;;
71572;SDS011;59408;51.032;9.410;2022-10-12T07:12:03;9.07;;;4.93;;
71572;SDS011;59408;51.032;9.410;2022-10-12T07:14:30;11.20;;;4.97;;
71572;SDS011;59408;51.032;9.410;2022-10-12T07:16:56;9.23;;;4.60;;
71572;SDS011;59408;51.032;9.410;2022-10-12T07:19:24;8.95;;;4.55;;
71572;SDS011;59408;51.032;9.410;2022-10-12T07:21:51;9.07;;;4.43;;
71572;SDS011;59408;51.032;9.410;2022-10-12T07:24:17;9.68;;;4.55;;
71572;SDS011;59408;51.032;9.410;2022-10-12T07:26:44;8.55;;;4.38;;
71572;SDS011;59408;51.032;9.410;2022-10-12T07:29:10;9.10;;;4.13;;
71572;SDS011;59408;51.032;9.410;2022-10-12T07:31:37;8.88;;;4.20;;
71572;SDS011;59408;51.032;9.410;2022-10-12T07:34:03;9.95;;;4.30;;
71572;SDS011;59408;51.032;9.410;2022-10-12T07:36:32;8.38;;;3.42;;
71572;SDS011;59408;51.032;9.410;2022-10-12T07:39:18;8.07;;;3.90;;
71572;SDS011;59408;51.032;9.410;2022-10-12T07:41:46;7.67;;;3.53;;
71572;SDS011;59408;51.032;9.410;2022-10-12T07:44:12;10.18;;;3.90;;
71572;SDS011;59408;51.032;9.410;2022-10-12T07:46:39;8.68;;;3.90;;
71572;SDS011;59408;51.032;9.410;2022-10-12T07:49:06;9.00;;;4.25;;
71572;SDS011;59408;51.032;9.410;2022-10-12T07:51:34;10.23;;;5.00;;
71572;SDS011;59408;51.032;9.410;2022-10-12T07:54:02;7.97;;;3.67;;
71572;SDS011;59408;51.032;9.410;2022-10-12T07:56:28;7.65;;;3.80;;
71572;SDS011;59408;51.032;9.410;2022-10-12T07:58:55;7.28;;;3.80;;
71572;SDS011;59408;51.032;9.410;2022-10-12T08:01:23;7.85;;;4.00;;
71572;SDS011;59408;51.032;9.410;2022-10-12T08:03:51;8.63;;;3.63;;
71572;SDS011;59408;51.032;9.410;2022-10-12T08:06:26;7.23;;;3.37;;
71572;SDS011;59408;51.032;9.410;2022-10-12T08:08:56;8.60;;;4.37;;
71572;SDS011;59408;51.032;9.410;2022-10-12T08:11:22;7.53;;;4.00;;
71572;SDS011;59408;51.032;9.410;2022-10-12T08:13:49;9.23;;;4.13;;
71572;SDS011;59408;51.032;9.410;2022-10-12T08:16:17;9.43;;;4.10;;
71572;SDS011;59408;51.032;9.410;2022-10-12T08:18:45;7.20;;;3.50;;
71572;SDS011;59408;51.032;9.410;2022-10-12T08:21:12;7.97;;;3.63;;
71572;SDS011;59408;51.032;9.410;2022-10-12T08:23:40;7.35;;;3.47;;
71572;SDS011;59408;51.032;9.410;2022-10-12T08:26:08;6.95;;;3.53;;
71572;SDS011;59408;51.032;9.410;2022-10-12T08:28:35;7.35;;;3.60;;
71572;SDS011;59408;51.032;9.410;2022-10-12T08:31:04;10.23;;;4.32;;
71572;SDS011;59408;51.032;9.410;2022-10-12T08:33:32;8.80;;;3.63;;
71572;SDS011;59408;51.032;9.410;2022-10-12T08:35:59;9.23;;;4.38;;
71572;SDS011;59408;51.032;9.410;2022-10-12T08:38:26;7.13;;;3.85;;
71572;SDS011;59408;51.032;9.410;2022-10-12T08:40:54;8.82;;;4.03;;
71572;SDS011;59408;51.032;9.410;2022-10-12T08:43:30;7.70;;;3.70;;
71572;SDS011;59408;51.032;9.410;2022-10-12T08:46:08;8.27;;;4.10;;
71572;SDS011;59408;51.032;9.410;2022-10-12T08:48:38;8.75;;;4.47;;
71572;SDS011;59408;51.032;9.410;2022-10-12T08:51:13;9.45;;;4.32;;
71572;SDS011;59408;51.032;9.410;2022-10-12T08:53:46;8.45;;;3.95;;
71572;SDS011;59408;51.032;9.410;2022-10-12T08:56:16;9.57;;;4.03;;
71572;SDS011;59408;51.032;9.410;2022-10-12T08:58:45;8.17;;;3.90;;
71572;SDS011;59408;51.032;9.410;2022-10-12T09:01:17;8.65;;;3.88;;
71572;SDS011;59408;51.032;9.410;2022-10-12T09:03:51;7.05;;;3.50;;
71572;SDS011;59408;51.032;9.410;2022-10-12T09:06:29;8.82;;;3.63;;
71572;SDS011;59408;51.032;9.410;2022-10-12T09:09:02;7.28;;;3.42;;
71572;SDS011;59408;51.032;9.410;2022-10-12T09:11:38;9.00;;;4.10;;
71572;SDS011;59408;51.032;9.410;2022-10-12T09:14:17;10.32;;;3.67;;
71572;SDS011;59408;51.032;9.410;2022-10-12T09:16:47;10.73;;;4.10;;
71572;SDS011;59408;51.032;9.410;2022-10-12T09:19:17;9.13;;;3.92;;
71572;SDS011;59408;51.032;9.410;2022-10-12T09:21:45;7.65;;;3.75;;
71572;SDS011;59408;51.032;9.410;2022-10-12T09:24:14;8.73;;;3.73;;
71572;SDS011;59408;51.032;9.410;2022-10-12T09:26:43;8.65;;;3.58;;
71572;SDS011;59408;51.032;9.410;2022-10-12T09:29:22;10.25;;;3.28;;
71572;SDS011;59408;51.032;9.410;2022-10-12T09:31:59;8.27;;;3.67;;
71572;SDS011;59408;51.032;9.410;2022-10-12T09:34:38;10.00;;;3.33;;
71572;SDS011;59408;51.032;9.410;2022-10-12T09:37:05;9.83;;;3.47;;
71572;SDS011;59408;51.032;9.410;2022-10-12T09:39:35;10.37;;;3.37;;
71572;SDS011;59408;51.032;9.410;2022-10-12T09:42:04;8.93;;;3.03;;
71572;SDS011;59408;51.032;9.410;2022-10-12T09:44:32;7.53;;;3.60;;
71572;SDS011;59408;51.032;9.410;2022-10-12T09:47:02;9.00;;;3.10;;
71572;SDS011;59408;51.032;9.410;2022-10-12T09:49:39;8.50;;;3.95;;
71572;SDS011;59408;51.032;9.410;2022-10-12T09:52:07;10.17;;;3.80;;
71572;SDS011;59408;51.032;9.410;2022-10-12T09:54:34;10.52;;;3.45;;
71572;SDS011;59408;51.032;9.410;2022-10-12T09:57:05;7.15;;;3.35;;
71572;SDS011;59408;51.032;9.410;2022-10-12T09:59:35;7.05;;;3.17;;
71572;SDS011;59408;51.032;9.410;2022-10-12T10:02:10;7.80;;;3.22;;
71572;SDS011;59408;51.032;9.410;2022-10-12T10:04:40;7.40;;;3.03;;
71572;SDS011;59408;51.032;9.410;2022-10-12T10:07:12;7.43;;;3.15;;
71572;SDS011;59408;51.032;9.410;2022-10-12T10:09:45;8.20;;;3.40;;
71572;SDS011;59408;51.032;9.410;2022-10-12T10:12:13;7.75;;;3.25;;
71572;SDS011;59408;51.032;9.410;2022-10-12T10:14:48;8.48;;;3.60;;
71572;SDS011;59408;51.032;9.410;2022-10-12T10:17:16;6.37;;;2.93;;
71572;SDS011;59408;51.032;9.410;2022-10-12T10:19:50;9.90;;;3.93;;
71572;SDS011;59408;51.032;9.410;2022-10-12T10:22:19;9.20;;;3.63;;
71572;SDS011;59408;51.032;9.410;2022-10-12T10:24:50;9.95;;;3.30;;
71572;SDS011;59408;51.032;9.410;2022-10-12T10:27:29;8.35;;;3.20;;
71572;SDS011;59408;51.032;9.410;2022-10-12T10:30:19;9.30;;;3.22;;
71572;SDS011;59408;51.032;9.410;2022-10-12T10:33:07;7.37;;;3.50;;
71572;SDS011;59408;51.032;9.410;2022-10-12T10:35:42;9.55;;;2.80;;
71572;SDS011;59408;51.032;9.410;2022-10-12T10:38:19;8.27;;;2.90;;
71572;SDS011;59408;51.032;9.410;2022-10-12T10:40:48;8.00;;;2.50;;
71572;SDS011;59408;51.032;9.410;2022-10-12T10:43:18;9.13;;;2.75;;
71572;SDS011;59408;51.032;9.410;2022-10-12T10:45:51;7.90;;;2.87;;
71572;SDS011;59408;51.032;9.410;2022-10-12T10:48:20;6.65;;;2.55;;
71572;SDS011;59408;51.032;9.410;2022-10-12T10:50:50;7.45;;;2.55;;
71572;SDS011;59408;51.032;9.410;2022-10-12T10:53:19;8.13;;;2.63;;
71572;SDS011;59408;51.032;9.410;2022-10-12T10:55:48;8.45;;;3.28;;
71572;SDS011;59408;51.032;9.410;2022-10-12T10:58:21;10.80;;;3.30;;
71572;SDS011;59408;51.032;9.410;2022-10-12T11:00:55;8.43;;;3.03;;
71572;SDS011;59408;51.032;9.410;2022-10-12T11:03:27;7.72;;;3.20;;
71572;SDS011;59408;51.032;9.410;2022-10-12T11:06:01;11.50;;;3.63;;
71572;SDS011;59408;51.032;9.410;2022-10-12T11:08:34;8.77;;;3.58;;
71572;SDS011;59408;51.032;9.410;2022-10-12T11:11:03;7.50;;;3.15;;
71572;SDS011;59408;51.032;9.410;2022-10-12T11:13:37;10.63;;;2.80;;
71572;SDS011;59408;51.032;9.410;2022-10-12T11:16:09;7.38;;;2.75;;
71572;SDS011;59408;51.032;9.410;2022-10-12T11:18:48;9.90;;;3.20;;
71572;SDS011;59408;51.032;9.410;2022-10-12T11:21:19;9.63;;;3.25;;
71572;SDS011;59408;51.032;9.410;2022-10-12T11:23:49;9.57;;;3.55;;
71572;SDS011;59408;51.032;9.410;2022-10-12T11:26:21;8.27;;;3.50;;
71572;SDS011;59408;51.032;9.410;2022-10-12T11:28:52;7.80;;;3.22;;
71572;SDS011;59408;51.032;9.410;2022-10-12T11:31:27;8.65;;;3.30;;
71572;SDS011;59408;51.032;9.410;2022-10-12T11:33:58;7.38;;;3.08;;
71572;SDS011;59408;51.032;9.410;2022-10-12T11:36:26;9.73;;;3.53;;
71572;SDS011;59408;51.032;9.410;2022-10-12T11:38:56;8.10;;;3.23;;
71572;SDS011;59408;51.032;9.410;2022-10-12T11:41:33;8.45;;;3.00;;
71572;SDS011;59408;51.032;9.410;2022-10-12T11:44:03;7.90;;;2.90;;
71572;SDS011;59408;51.032;9.410;2022-10-12T11:46:39;10.23;;;3.33;;
71572;SDS011;59408;51.032;9.410;2022-10-12T11:49:12;12.70;;;3.72;;
71572;SDS011;59408;51.032;9.410;2022-10-12T11:51:44;8.77;;;3.67;;
71572;SDS011;59408;51.032;9.410;2022-10-12T11:54:14;9.20;;;3.30;;
71572;SDS011;59408;51.032;9.410;2022-10-12T11:56:49;9.65;;;3.40;;
71572;SDS011;59408;51.032;9.410;2022-10-12T11:59:18;7.95;;;3.45;;
71572;SDS011;59408;51.032;9.410;2022-10-12T12:01:56;9.82;;;3.42;;
71572;SDS011;59408;51.032;9.410;2022-10-12T12:04:30;9.40;;;3.87;;
71572;SDS011;59408;51.032;9.410;2022-10-12T12:13:14;11.23;;;4.60;;
71572;SDS011;59408;51.032;9.410;2022-10-12T12:24:52;8.10;;;4.00;;
71572;SDS011;59408;51.032;9.410;2022-10-12T12:27:22;12.40;;;6.40;;
71572;SDS011;59408;51.032;9.410;2022-10-12T12:29:55;10.98;;;4.30;;
71572;SDS011;59408;51.032;9.410;2022-10-12T12:32:23;10.48;;;4.40;;
71572;SDS011;59408;51.032;9.410;2022-10-12T12:34:53;8.65;;;4.55;;
71572;SDS011;59408;51.032;9.410;2022-10-12T12:37:27;8.57;;;3.73;;
71572;SDS011;59408;51.032;9.410;2022-10-12T12:39:59;10.60;;;3.97;;
71572;SDS011;59408;51.032;9.410;2022-10-12T12:42:26;8.45;;;3.83;;
71572;SDS011;59408;51.032;9.410;2022-10-12T12:44:54;9.20;;;3.28;;
71572;SDS011;59408;51.032;9.410;2022-10-12T12:47:21;10.05;;;3.72;;
71572;SDS011;59408;51.032;9.410;2022-10-12T12:50:27;7.83;;;3.37;;
71572;SDS011;59408;51.032;9.410;2022-10-12T12:53:00;11.30;;;3.55;;
71572;SDS011;59408;51.032;9.410;2022-10-12T12:55:34;7.40;;;3.13;;
71572;SDS011;59408;51.032;9.410;2022-10-12T12:58:35;9.55;;;3.40;;
71572;SDS011;59408;51.032;9.410;2022-10-12T13:01:18;7.88;;;3.22;;
71572;SDS011;59408;51.032;9.410;2022-10-12T13:03:57;9.57;;;3.53;;
71572;SDS011;59408;51.032;9.410;2022-10-12T13:06:50;7.40;;;3.20;;
71572;SDS011;59408;51.032;9.410;2022-10-12T13:09:38;8.57;;;3.40;;
71572;SDS011;59408;51.032;9.410;2022-10-12T13:12:19;10.82;;;3.90;;
71572;SDS011;59408;51.032;9.410;2022-10-12T13:15:11;8.25;;;4.18;;
71572;SDS011;59408;51.032;9.410;2022-10-12T13:17:50;9.83;;;3.97;;
71572;SDS011;59408;51.032;9.410;2022-10-12T13:20:28;8.90;;;4.03;;
71572;SDS011;59408;51.032;9.410;2022-10-12T13:22:59;8.73;;;4.32;;
71572;SDS011;59408;51.032;9.410;2022-10-12T13:25:28;9.70;;;3.90;;
71572;SDS011;59408;51.032;9.410;2022-10-12T13:27:58;10.73;;;3.78;;
71572;SDS011;59408;51.032;9.410;2022-10-12T13:30:29;8.70;;;3.78;;
71572;SDS011;59408;51.032;9.410;2022-10-12T13:33:01;10.10;;;4.27;;
71572;SDS011;59408;51.032;9.410;2022-10-12T13:35:33;8.07;;;3.58;;
71572;SDS011;59408;51.032;9.410;2022-10-12T13:38:05;8.95;;;3.35;;
71572;SDS011;59408;51.032;9.410;2022-10-12T13:40:43;9.65;;;3.42;;
71572;SDS011;59408;51.032;9.410;2022-10-12T13:43:19;10.20;;;3.78;;
71572;SDS011;59408;51.032;9.410;2022-10-12T13:45:52;9.13;;;3.63;;
71572;SDS011;59408;51.032;9.410;2022-10-12T13:48:20;12.70;;;3.90;;
71572;SDS011;59408;51.032;9.410;2022-10-12T13:51:18;9.43;;;3.75;;
71572;SDS011;59408;51.032;9.410;2022-10-12T13:53:49;10.23;;;3.60;;
71572;SDS011;59408;51.032;9.410;2022-10-12T13:56:17;11.68;;;3.85;;
71572;SDS011;59408;51.032;9.410;2022-10-12T13:58:46;11.17;;;3.40;;
71572;SDS011;59408;51.032;9.410;2022-10-12T14:01:12;10.18;;;3.65;;
71572;SDS011;59408;51.032;9.410;2022-10-12T14:03:40;8.50;;;3.45;;
71572;SDS011;59408;51.032;9.410;2022-10-12T14:06:21;9.45;;;3.35;;
71572;SDS011;59408;51.032;9.410;2022-10-12T14:08:52;8.75;;;3.40;;
71572;SDS011;59408;51.032;9.410;2022-10-12T14:11:24;9.20;;;3.57;;
71572;SDS011;59408;51.032;9.410;2022-10-12T14:13:52;10.88;;;3.50;;
71572;SDS011;59408;51.032;9.410;2022-10-12T14:16:20;7.40;;;3.55;;
71572;SDS011;59408;51.032;9.410;2022-10-12T14:18:47;8.00;;;3.47;;
71572;SDS011;59408;51.032;9.410;2022-10-12T14:21:15;8.57;;;3.70;;
71572;SDS011;59408;51.032;9.410;2022-10-12T14:23:46;8.87;;;3.60;;
71572;SDS011;59408;51.032;9.410;2022-10-12T14:26:23;11.18;;;3.90;;
71572;SDS011;59408;51.032;9.410;2022-10-12T14:28:52;9.30;;;3.60;;
71572;SDS011;59408;51.032;9.410;2022-10-12T14:34:26;8.30;;;4.10;;
71572;SDS011;59408;51.032;9.410;2022-10-12T14:37:00;11.50;;;4.00;;
71572;SDS011;59408;51.032;9.410;2022-10-12T14:39:27;11.23;;;3.78;;
71572;SDS011;59408;51.032;9.410;2022-10-12T14:41:55;7.85;;;3.78;;
71572;SDS011;59408;51.032;9.410;2022-10-12T14:44:25;10.45;;;3.53;;
71572;SDS011;59408;51.032;9.410;2022-10-12T14:46:52;8.98;;;3.65;;
71572;SDS011;59408;51.032;9.410;2022-10-12T14:49:21;11.47;;;5.10;;
71572;SDS011;59408;51.032;9.410;2022-10-12T14:51:49;8.52;;;3.92;;
71572;SDS011;59408;51.032;9.410;2022-10-12T14:54:18;8.85;;;4.13;;
71572;SDS011;59408;51.032;9.410;2022-10-12T14:56:44;9.75;;;3.78;;
71572;SDS011;59408;51.032;9.410;2022-10-12T14:59:13;10.05;;;3.67;;
71572;SDS011;59408;51.032;9.410;2022-10-12T15:01:39;8.93;;;3.83;;
71572;SDS011;59408;51.032;9.410;2022-10-12T15:04:07;10.93;;;3.92;;
71572;SDS011;59408;51.032;9.410;2022-10-12T15:06:35;9.27;;;3.88;;
71572;SDS011;59408;51.032;9.410;2022-10-12T15:09:01;8.80;;;3.65;;
71572;SDS011;59408;51.032;9.410;2022-10-12T15:11:28;9.63;;;3.78;;
71572;SDS011;59408;51.032;9.410;2022-10-12T15:13:55;10.33;;;3.90;;
71572;SDS011;59408;51.032;9.410;2022-10-12T15:16:23;11.43;;;3.80;;
71572;SDS011;59408;51.032;9.410;2022-10-12T15:18:51;10.45;;;3.80;;
71572;SDS011;59408;51.032;9.410;2022-10-12T15:21:18;10.00;;;4.07;;